Campo Largo, Argentina
Current Conditions -  °F | °C
As of 1:00 PM on Monday 26 Jan 2015 (Local Time) from SARE Reporting Station
Broken Clouds Broken Clouds  
Wind Chill: 91°   Ceiling: 20000
Heat Index: 97°   Visibility: 6mi
Dew Point: 70°   Wind: 8mph
Humidity: 49%   Direction: 50°NE
Pressure: 29.8"   Gusts: NA
Location:  26.8°S, 60.83°W
Report Text: SARE 261600Z 05007KT 9999 FEW020 BKN200 33/21 Q1009
Loading
Personal Weather Stations






























Interactive Weather Map New forecast layout! Learn more

10-Day Weather Forecast

Advertisements
Track Severe Weather on mobile